Time;durP1;ratioP1;P1;durP2;ratioP2;P2;SDS_P1;SDS_P2;PMS_P1;PMS_P2;Temp;Humidity;BMP_temperature;BMP_pressure;BME280_temperature;BME280_humidity;BME280_pressure;Samples;Min_cycle;Max_cycle;Signal;HPM_P1;HPM_P2
2021/12/13 00:02:23;;;;;;;5.23;3.63;;;2.50;99.90;;;;;;4970965;28;20019;-78
2021/12/13 00:05:12;;;;;;;6.40;2.60;;;2.40;99.90;;;;;;4970383;28;20023;-78
2021/12/13 00:07:43;;;;;;;6.77;2.67;;;2.40;99.90;;;;;;4970414;28;20031;-78
2021/12/13 00:10:19;;;;;;;3.80;2.77;;;2.40;99.90;;;;;;4970892;28;20479;-78
2021/12/13 00:12:57;;;;;;;3.73;2.37;;;2.40;99.90;;;;;;4949777;29;20053;-78
2021/12/13 00:15:32;;;;;;;5.57;3.47;;;2.40;99.90;;;;;;4951285;28;20031;-78
2021/12/13 00:18:04;;;;;;;4.93;2.75;;;2.40;99.90;;;;;;4951346;29;20031;-78
2021/12/13 00:20:40;;;;;;;4.27;2.90;;;2.40;99.90;;;;;;4950999;29;20042;-78
2021/12/13 00:23:20;;;;;;;4.27;2.50;;;2.30;99.90;;;;;;4949961;29;20042;-78
2021/12/13 00:25:50;;;;;;;4.70;2.70;;;2.40;99.90;;;;;;4951007;28;20035;-78
2021/12/13 00:28:18;;;;;;;5.47;2.87;;;2.40;99.90;;;;;;4950979;29;20074;-78
2021/12/13 00:30:53;;;;;;;6.10;2.90;;;2.40;99.90;;;;;;4950894;29;20114;-78
2021/12/13 00:33:53;;;;;;;4.68;2.88;;;2.40;99.90;;;;;;4950617;29;20044;-78
2021/12/13 00:36:37;;;;;;;4.40;2.40;;;2.40;99.90;;;;;;4951000;28;20050;-78
2021/12/13 00:39:12;;;;;;;3.97;2.30;;;2.50;99.90;;;;;;4949661;29;20031;-78
2021/12/13 00:41:42;;;;;;;5.72;2.42;;;2.40;99.90;;;;;;4950787;29;20439;-78
2021/12/13 00:44:22;;;;;;;3.00;2.10;;;2.40;99.90;;;;;;4950428;29;20089;-78
2021/12/13 00:46:51;;;;;;;3.00;2.20;;;2.40;99.90;;;;;;4950724;29;20391;-78
2021/12/13 00:49:22;;;;;;;6.40;2.70;;;2.50;99.90;;;;;;4950650;29;20059;-78
2021/12/13 00:51:51;;;;;;;4.93;2.13;;;2.40;99.90;;;;;;4950669;29;20042;-78
2021/12/13 00:54:27;;;;;;;2.47;1.80;;;2.50;99.90;;;;;;4950750;29;20044;-78
2021/12/13 00:56:58;;;;;;;2.77;2.13;;;2.50;99.90;;;;;;4950526;29;20418;-78
2021/12/13 00:59:30;;;;;;;3.13;1.97;;;2.40;99.90;;;;;;4950528;29;20038;-78
2021/12/13 01:02:14;;;;;;;3.17;1.90;;;2.40;99.90;;;;;;4950622;29;20029;-78
2021/12/13 01:05:00;;;;;;;2.80;2.00;;;2.40;99.90;;;;;;4950474;29;20027;-78
2021/12/13 01:07:50;;;;;;;4.17;2.67;;;2.50;99.90;;;;;;4931376;29;20078;-78
2021/12/13 01:10:52;;;;;;;3.23;2.00;;;2.40;99.90;;;;;;4947367;29;20193;-78
2021/12/13 01:13:28;;;;;;;4.83;2.23;;;2.50;99.90;;;;;;4958515;28;20039;-78
2021/12/13 01:19:24;;;;;;;3.77;2.20;;;2.50;99.90;;;;;;4969844;28;20482;-78
2021/12/13 01:22:36;;;;;;;5.13;2.07;;;2.50;99.90;;;;;;4968924;28;20539;-78
2021/12/13 01:28:18;;;;;;;2.30;1.63;;;2.50;99.90;;;;;;4968368;28;20091;-78
2021/12/13 01:30:50;;;;;;;2.70;1.77;;;2.50;99.90;;;;;;4970001;28;20440;-74
2021/12/13 01:33:18;;;;;;;3.13;1.77;;;2.40;99.90;;;;;;4972481;28;20027;-74
2021/12/13 01:35:47;;;;;;;2.67;1.97;;;2.50;99.90;;;;;;4972350;28;20046;-74
2021/12/13 01:38:30;;;;;;;3.43;2.30;;;2.40;99.90;;;;;;4972132;28;20031;-74
2021/12/13 01:40:56;;;;;;;2.70;2.00;;;2.50;99.90;;;;;;4954824;28;20038;-74
2021/12/13 01:43:27;;;;;;;3.33;2.13;;;2.40;99.90;;;;;;4972228;28;20023;-74
2021/12/13 01:45:54;;;;;;;4.27;2.20;;;2.40;99.90;;;;;;4972741;28;20041;-74
2021/12/13 01:48:28;;;;;;;2.67;1.87;;;2.40;99.90;;;;;;4972387;28;20031;-74
2021/12/13 01:51:04;;;;;;;3.57;1.80;;;2.40;99.90;;;;;;4972472;28;20037;-74
2021/12/13 01:53:46;;;;;;;4.53;1.73;;;2.40;99.90;;;;;;4972198;28;20109;-74
2021/12/13 01:56:57;;;;;;;5.23;2.10;;;2.40;99.90;;;;;;4954611;28;20127;-74
2021/12/13 02:02:30;;;;;;;2.70;1.70;;;2.40;99.90;;;;;;4971973;28;20049;-74
2021/12/13 02:05:07;;;;;;;3.05;1.90;;;2.40;99.90;;;;;;4971855;28;20037;-74
2021/12/13 02:07:42;;;;;;;2.73;1.63;;;2.40;99.90;;;;;;4972242;28;20031;-74
2021/12/13 02:10:14;;;;;;;3.10;1.83;;;2.40;99.90;;;;;;4971727;28;20513;-74
2021/12/13 02:12:43;;;;;;;2.23;1.50;;;2.40;99.90;;;;;;4971699;28;20471;-74
2021/12/13 02:17:57;;;;;;;3.87;1.53;;;2.40;99.90;;;;;;4971559;28;20041;-74
2021/12/13 02:20:31;;;;;;;3.90;1.60;;;2.40;99.90;;;;;;4971669;28;20479;-74
2021/12/13 02:22:58;;;;;;;3.65;1.77;;;2.40;99.90;;;;;;4972202;28;20023;-74
2021/12/13 02:25:29;;;;;;;2.63;1.53;;;2.40;99.90;;;;;;4971874;28;20019;-74
2021/12/13 02:28:21;;;;;;;2.37;1.70;;;2.40;99.90;;;;;;4971781;28;20117;-74
2021/12/13 02:30:54;;;;;;;3.20;1.57;;;2.40;99.90;;;;;;4968493;28;20039;-74
2021/12/13 02:33:28;;;;;;;2.70;1.37;;;2.40;99.90;;;;;;4971559;28;20022;-74
2021/12/13 02:35:58;;;;;;;2.23;1.70;;;2.40;99.90;;;;;;4971909;28;20063;-74
2021/12/13 02:38:25;;;;;;;2.57;2.03;;;2.40;99.90;;;;;;4971563;28;20023;-74
2021/12/13 02:40:52;;;;;;;2.03;1.77;;;2.40;99.90;;;;;;4971412;28;20019;-74
2021/12/13 02:43:21;;;;;;;4.53;2.00;;;2.30;99.90;;;;;;4954726;28;20064;-74
2021/12/13 02:45:53;;;;;;;3.20;2.10;;;2.40;99.90;;;;;;4971156;28;20034;-74
2021/12/13 02:48:26;;;;;;;4.27;2.33;;;2.40;99.90;;;;;;4954082;28;20034;-74
2021/12/13 02:51:13;;;;;;;2.60;1.90;;;2.40;99.90;;;;;;4971291;28;20111;-74
2021/12/13 02:53:49;;;;;;;2.20;1.70;;;2.40;99.90;;;;;;4971166;28;20043;-74
2021/12/13 02:56:18;;;;;;;2.93;1.57;;;2.40;99.90;;;;;;4971213;28;20039;-74
2021/12/13 02:58:46;;;;;;;2.83;1.63;;;2.50;99.90;;;;;;4971400;28;20038;-74
2021/12/13 03:01:25;;;;;;;1.83;1.47;;;2.40;99.90;;;;;;4971187;28;20460;-74
2021/12/13 03:03:58;;;;;;;1.83;1.50;;;2.40;99.90;;;;;;4971347;28;20027;-74
2021/12/13 03:06:29;;;;;;;2.33;1.50;;;2.40;99.90;;;;;;4971120;28;20027;-74
2021/12/13 03:09:00;;;;;;;2.13;1.70;;;2.40;99.90;;;;;;4953869;28;20041;-74
2021/12/13 03:11:32;;;;;;;2.27;1.40;;;2.40;99.90;;;;;;4953699;28;20096;-74
2021/12/13 03:14:00;;;;;;;4.07;1.60;;;2.40;99.90;;;;;;4971063;28;20043;-74
2021/12/13 03:16:48;;;;;;;2.53;1.67;;;2.40;99.90;;;;;;4971040;28;20033;-74
2021/12/13 03:19:42;;;;;;;2.30;1.53;;;2.40;99.90;;;;;;4971112;28;20023;-74
2021/12/13 03:22:44;;;;;;;4.10;1.90;;;2.40;99.90;;;;;;4971142;28;20027;-74
2021/12/13 03:25:48;;;;;;;2.50;1.60;;;2.40;99.90;;;;;;4953973;28;20371;-74
2021/12/13 03:28:34;;;;;;;2.03;1.50;;;2.40;99.90;;;;;;4971143;28;20102;-74
2021/12/13 03:31:10;;;;;;;2.70;1.67;;;2.50;99.90;;;;;;4971152;28;20026;-74
2021/12/13 03:34:12;;;;;;;3.60;1.83;;;2.40;99.90;;;;;;4974081;28;20027;-74
2021/12/13 03:36:58;;;;;;;6.40;1.73;;;2.40;99.90;;;;;;4973951;28;20379;-74
2021/12/13 03:39:56;;;;;;;3.73;2.17;;;2.50;99.90;;;;;;4974108;28;20031;-74
2021/12/13 03:42:28;;;;;;;2.80;1.90;;;2.50;99.90;;;;;;4973946;28;20022;-74
2021/12/13 03:45:00;;;;;;;2.47;2.00;;;2.40;99.90;;;;;;4974165;28;20468;-74
2021/12/13 03:47:37;;;;;;;2.40;1.87;;;2.40;99.90;;;;;;4974071;28;20015;-74
2021/12/13 03:50:12;;;;;;;2.47;1.83;;;2.40;99.90;;;;;;4973772;28;20034;-74
2021/12/13 03:52:41;;;;;;;3.20;2.20;;;2.40;99.90;;;;;;4974074;28;20467;-75
2021/12/13 03:55:09;;;;;;;2.67;2.03;;;2.40;99.90;;;;;;4973061;28;20042;-78
2021/12/13 03:57:42;;;;;;;5.43;2.40;;;2.40;99.90;;;;;;4960128;28;20038;-77
2021/12/13 04:00:12;;;;;;;3.40;2.40;;;2.40;99.90;;;;;;4937665;29;20023;-77
2021/12/13 04:02:40;;;;;;;5.23;2.40;;;2.50;99.90;;;;;;4954598;29;20034;-77
2021/12/13 04:05:17;;;;;;;2.50;2.00;;;2.50;99.90;;;;;;4954814;29;20162;-77
2021/12/13 04:07:52;;;;;;;2.77;2.20;;;2.50;99.90;;;;;;4954262;29;20058;-77
2021/12/13 04:10:27;;;;;;;3.72;1.90;;;2.50;99.90;;;;;;4954447;29;20161;-77
2021/12/13 04:12:55;;;;;;;4.22;1.80;;;2.50;99.90;;;;;;4954308;28;20047;-77
2021/12/13 04:15:31;;;;;;;3.90;2.27;;;2.50;99.90;;;;;;4954244;28;20533;-77
2021/12/13 04:20:30;;;;;;;3.23;2.07;;;2.60;99.90;;;;;;4954341;29;20483;-78
2021/12/13 04:23:03;;;;;;;3.13;2.27;;;2.60;99.90;;;;;;4954314;29;20026;-77
2021/12/13 04:25:33;;;;;;;3.47;2.13;;;2.60;99.90;;;;;;4954129;28;20487;-77
2021/12/13 04:28:03;;;;;;;2.97;2.13;;;2.60;99.90;;;;;;4954289;28;20035;-77
2021/12/13 04:30:42;;;;;;;4.93;2.00;;;2.60;99.90;;;;;;4954452;29;20030;-77
2021/12/13 04:33:30;;;;;;;3.20;2.03;;;2.60;99.90;;;;;;4953985;29;20031;-77
2021/12/13 04:36:04;;;;;;;4.33;2.50;;;2.60;99.90;;;;;;4953910;29;20031;-77
2021/12/13 04:38:49;;;;;;;3.20;2.60;;;2.60;99.90;;;;;;4954001;29;20023;-77
2021/12/13 04:41:31;;;;;;;5.43;2.80;;;2.60;99.90;;;;;;4954356;29;20113;-78
2021/12/13 04:44:08;;;;;;;4.67;2.80;;;2.60;99.90;;;;;;4952989;28;20032;-77
2021/12/13 04:46:35;;;;;;;4.43;2.77;;;2.70;99.90;;;;;;4953914;29;20033;-77
2021/12/13 04:49:09;;;;;;;10.07;3.33;;;2.60;99.90;;;;;;4953591;29;20035;-77
2021/12/13 04:51:59;;;;;;;3.47;3.17;;;2.60;99.90;;;;;;4953914;29;20042;-77
2021/12/13 04:54:27;;;;;;;5.97;3.30;;;2.60;99.90;;;;;;4954131;29;20484;-77
2021/12/13 04:56:55;;;;;;;3.77;3.20;;;2.60;99.90;;;;;;4954004;29;20031;-77
2021/12/13 04:59:21;;;;;;;5.67;4.17;;;2.60;99.90;;;;;;4953831;28;20120;-78
2021/12/13 05:01:51;;;;;;;5.03;3.33;;;2.60;99.90;;;;;;4953342;29;20035;-77
2021/12/13 05:04:19;;;;;;;4.53;3.97;;;2.70;99.90;;;;;;4953580;28;20062;-77
2021/12/13 05:06:44;;;;;;;5.80;3.70;;;2.70;99.90;;;;;;4936246;28;20023;-77
2021/12/13 05:09:14;;;;;;;4.50;3.93;;;2.70;99.90;;;;;;4953359;28;20103;-77
2021/12/13 05:12:15;;;;;;;5.47;4.10;;;2.70;99.90;;;;;;4953378;29;20034;-78
2021/12/13 05:14:51;;;;;;;6.20;4.30;;;2.70;99.90;;;;;;4954329;28;20063;-78
2021/12/13 05:17:18;;;;;;;;;;;2.70;99.90;;;;;;4936514;28;20134;-77
2021/12/13 05:20:20;;;;;;;7.77;5.27;;;2.70;99.90;;;;;;4953298;28;19964;-78
2021/12/13 05:22:54;;;;;;;9.90;5.30;;;2.70;99.90;;;;;;4964383;28;20043;-78
2021/12/13 05:25:30;;;;;;;9.13;5.67;;;2.70;99.90;;;;;;4953516;28;20457;-78
2021/12/13 05:28:18;;;;;;;6.37;5.00;;;2.70;99.90;;;;;;4953387;29;20019;-78
2021/12/13 05:30:57;;;;;;;9.00;6.20;;;2.70;99.90;;;;;;4953094;29;20407;-78
2021/12/13 05:33:25;;;;;;;8.10;4.80;;;2.70;99.90;;;;;;4953445;28;20032;-78
2021/12/13 05:35:58;;;;;;;6.90;5.00;;;2.80;99.90;;;;;;4953137;29;20028;-78
2021/12/13 05:38:35;;;;;;;6.77;5.20;;;2.80;99.90;;;;;;4952892;29;20031;-78
2021/12/13 05:41:06;;;;;;;8.40;5.43;;;2.80;99.90;;;;;;4952818;29;20088;-77
2021/12/13 05:43:48;;;;;;;8.67;5.37;;;2.80;99.90;;;;;;4935997;28;20039;-77
2021/12/13 05:46:19;;;;;;;6.97;5.60;;;2.80;99.90;;;;;;4953289;29;20027;-77
2021/12/13 05:48:55;;;;;;;10.27;5.77;;;2.80;99.90;;;;;;4953260;29;20019;-77
2021/12/13 05:51:28;;;;;;;8.67;6.43;;;2.80;99.90;;;;;;4952787;29;20039;-77
2021/12/13 05:53:59;;;;;;;9.00;6.37;;;2.80;99.90;;;;;;4952914;29;20035;-77
2021/12/13 05:56:35;;;;;;;12.77;6.33;;;2.80;99.90;;;;;;4952655;29;20062;-77
2021/12/13 05:59:23;;;;;;;7.97;5.87;;;2.80;99.90;;;;;;4951544;29;20023;-77
2021/12/13 06:02:15;;;;;;;10.33;5.80;;;2.80;99.90;;;;;;4949794;29;20055;-78
2021/12/13 06:04:44;;;;;;;7.83;6.30;;;2.90;99.90;;;;;;4949942;29;20019;-79
2021/12/13 06:07:21;;;;;;;9.10;6.73;;;2.90;99.90;;;;;;4949682;29;20028;-79
2021/12/13 06:09:48;;;;;;;9.97;6.43;;;2.90;99.90;;;;;;4967574;28;20392;-78
2021/12/13 06:12:25;;;;;;;10.70;6.97;;;2.90;99.90;;;;;;4967740;28;20030;-79
2021/12/13 06:14:52;;;;;;;7.83;6.20;;;2.90;99.90;;;;;;4968702;28;20035;-78
2021/12/13 06:17:26;;;;;;;7.83;6.30;;;2.90;99.90;;;;;;4951287;28;20091;-78
2021/12/13 06:20:21;;;;;;;8.47;6.27;;;2.90;99.90;;;;;;4968889;28;20092;-79
2021/12/13 06:22:47;;;;;;;10.07;6.73;;;2.90;99.90;;;;;;4965547;28;20035;-78
2021/12/13 06:25:17;;;;;;;8.10;6.23;;;2.90;99.90;;;;;;4968927;28;20092;-78
2021/12/13 06:27:52;;;;;;;7.87;6.37;;;2.90;99.90;;;;;;4951172;28;20391;-78
2021/12/13 06:30:25;;;;;;;9.07;5.53;;;3.00;99.90;;;;;;4968667;28;20114;-79
2021/12/13 06:33:06;;;;;;;11.00;6.17;;;3.00;99.90;;;;;;4968540;28;20098;-79
2021/12/13 06:35:37;;;;;;;11.20;7.07;;;3.00;99.90;;;;;;4967411;28;20023;-78
2021/12/13 06:38:34;;;;;;;11.23;7.00;;;3.00;99.90;;;;;;4976219;28;20025;-78
2021/12/13 06:41:17;;;;;;;11.40;7.40;;;3.00;99.90;;;;;;4986972;28;20038;-79
2021/12/13 06:44:16;;;;;;;12.50;7.50;;;3.00;99.90;;;;;;4971154;28;20045;-79
2021/12/13 06:46:48;;;;;;;10.53;7.67;;;3.00;99.90;;;;;;4971520;28;20022;-79
2021/12/13 06:49:47;;;;;;;12.50;7.70;;;3.00;99.90;;;;;;4971845;28;20042;-79
2021/12/13 06:52:12;;;;;;;12.57;8.20;;;3.00;99.90;;;;;;4971198;28;20125;-79
2021/12/13 06:55:17;;;;;;;12.53;7.63;;;3.00;99.90;;;;;;4971606;28;20502;-79
2021/12/13 06:57:57;;;;;;;11.67;8.03;;;3.00;99.90;;;;;;4959965;28;20090;-79
2021/12/13 07:00:22;;;;;;;14.20;9.33;;;3.00;99.90;;;;;;4961110;28;20548;-79
2021/12/13 07:02:56;;;;;;;12.53;8.73;;;3.00;99.90;;;;;;4965924;28;20038;-79
2021/12/13 07:05:28;;;;;;;13.20;9.77;;;3.00;99.90;;;;;;4973323;28;20101;-79
2021/12/13 07:08:02;;;;;;;13.10;9.87;;;3.10;99.90;;;;;;4955683;28;20035;-79
2021/12/13 07:10:35;;;;;;;14.70;9.93;;;3.10;99.90;;;;;;4975972;28;20073;-70
2021/12/13 07:13:05;;;;;;;12.47;9.47;;;3.10;99.90;;;;;;4981177;28;20100;-79
2021/12/13 07:15:44;;;;;;;15.63;9.80;;;3.10;99.90;;;;;;4974669;28;20027;-80
2021/12/13 07:18:30;;;;;;;12.57;8.90;;;3.10;99.90;;;;;;4973529;28;20036;-80
2021/12/13 07:21:02;;;;;;;12.02;8.90;;;3.10;99.90;;;;;;5010124;28;20048;-79
2021/12/13 07:23:28;;;;;;;12.67;8.80;;;3.10;99.90;;;;;;5005814;28;20011;-79
2021/12/13 07:25:55;;;;;;;13.80;9.13;;;3.20;99.90;;;;;;4993447;28;20031;-78
2021/12/13 07:28:34;;;;;;;13.80;9.20;;;3.20;99.90;;;;;;5012302;28;20023;-78
2021/12/13 07:31:01;;;;;;;14.00;9.27;;;3.20;99.90;;;;;;5017199;28;20031;-79
2021/12/13 07:33:42;;;;;;;15.23;9.13;;;3.20;99.90;;;;;;4986951;28;20062;-79
2021/12/13 07:36:24;;;;;;;16.23;9.73;;;3.20;99.90;;;;;;5000728;28;20034;-78
2021/12/13 07:38:57;;;;;;;14.47;9.47;;;3.20;99.90;;;;;;4980327;28;20030;-78
2021/12/13 07:41:25;;;;;;;14.43;10.07;;;3.20;99.90;;;;;;4999417;28;20011;-78
2021/12/13 07:43:51;;;;;;;12.80;9.27;;;3.30;99.90;;;;;;5005959;28;20037;-78
2021/12/13 07:46:20;;;;;;;12.27;8.80;;;3.30;99.90;;;;;;4995603;28;20094;-79
2021/12/13 07:48:45;;;;;;;12.07;8.83;;;3.30;99.90;;;;;;4995894;28;20026;-79
2021/12/13 07:51:22;;;;;;;17.40;9.63;;;3.30;99.90;;;;;;4998704;28;20022;-80
2021/12/13 07:53:57;;;;;;;12.77;8.90;;;3.30;99.90;;;;;;4981162;28;20070;-79
2021/12/13 07:56:43;;;;;;;12.57;8.63;;;3.30;99.90;;;;;;5000714;28;20039;-79
2021/12/13 07:59:24;;;;;;;15.53;10.97;;;3.40;99.90;;;;;;4981672;28;20059;-78
2021/12/13 08:01:49;;;;;;;18.23;11.47;;;3.40;99.90;;;;;;5011036;28;20097;-78
2021/12/13 08:04:22;;;;;;;17.33;10.33;;;3.40;99.90;;;;;;5007679;28;20081;-79
2021/12/13 08:06:54;;;;;;;18.67;10.30;;;3.40;99.90;;;;;;4992552;28;21455;-83
2021/12/13 08:09:24;;;;;;;16.83;10.67;;;3.40;99.90;;;;;;4979346;28;20030;-82
2021/12/13 08:11:54;;;;;;;16.60;11.13;;;3.50;99.90;;;;;;4984959;28;20042;-81
2021/12/13 08:14:37;;;;;;;15.43;9.77;;;3.50;99.90;;;;;;4986200;28;20422;-86
2021/12/13 08:17:24;;;;;;;18.37;10.17;;;3.50;99.90;;;;;;4973194;28;20123;-80
2021/12/13 08:20:06;;;;;;;16.73;9.60;;;3.50;99.90;;;;;;4972825;28;20038;-80
2021/12/13 08:22:33;;;;;;;14.53;8.90;;;3.60;99.90;;;;;;4972641;28;20069;-80
2021/12/13 08:25:07;;;;;;;16.13;9.40;;;3.60;99.90;;;;;;4974342;28;20037;-80
2021/12/13 08:27:43;;;;;;;11.87;9.07;;;3.70;99.90;;;;;;4973440;28;20088;-80
2021/12/13 08:30:38;;;;;;;13.57;9.87;;;3.60;99.90;;;;;;4972997;28;20074;-80
2021/12/13 08:33:09;;;;;;;16.17;9.10;;;3.70;99.90;;;;;;4955918;28;20050;-80
2021/12/13 08:35:45;;;;;;;11.67;8.90;;;3.70;99.90;;;;;;4974996;28;20424;-80
2021/12/13 08:38:22;;;;;;;14.40;9.00;;;3.70;99.90;;;;;;4974005;28;20062;-80
2021/12/13 08:40:48;;;;;;;15.23;9.30;;;3.80;99.90;;;;;;4957494;28;20030;-80
2021/12/13 08:43:14;;;;;;;15.10;8.83;;;3.90;99.90;;;;;;4974650;28;20026;-80
2021/12/13 08:45:41;;;;;;;15.67;9.27;;;3.90;99.90;;;;;;4974660;28;20038;-82
2021/12/13 08:48:15;;;;;;;14.73;8.50;;;4.00;99.90;;;;;;4973263;28;20050;-82
2021/12/13 08:50:54;;;;;;;14.52;8.60;;;4.00;99.90;;;;;;4973213;28;20754;-82
2021/12/13 08:53:24;;;;;;;10.20;8.27;;;4.10;99.90;;;;;;4972779;28;20153;-80
2021/12/13 08:56:10;;;;;;;10.17;7.80;;;4.20;99.90;;;;;;4954573;28;20034;-80
2021/12/13 08:58:48;;;;;;;12.40;9.37;;;4.20;99.90;;;;;;4971149;28;20078;-80
2021/12/13 09:01:14;;;;;;;12.47;8.53;;;4.30;99.90;;;;;;4972961;28;20054;-80
2021/12/13 09:03:43;;;;;;;12.77;9.20;;;4.30;99.90;;;;;;4972923;28;20065;-80
2021/12/13 09:06:24;;;;;;;16.50;9.00;;;4.30;99.90;;;;;;4973600;28;20057;-80
2021/12/13 09:08:52;;;;;;;13.77;8.90;;;4.40;99.90;;;;;;4973397;28;20483;-80
2021/12/13 09:11:37;;;;;;;11.57;7.57;;;4.40;99.90;;;;;;4973418;28;20110;-82
2021/12/13 09:14:22;;;;;;;9.13;7.43;;;4.50;99.90;;;;;;4950106;28;20104;-80
2021/12/13 09:16:56;;;;;;;9.47;7.47;;;4.50;99.90;;;;;;4967552;28;20385;-80
2021/12/13 09:19:28;;;;;;;9.60;6.68;;;4.60;99.90;;;;;;4971080;28;20034;-80
2021/12/13 09:22:08;;;;;;;11.03;6.80;;;4.60;99.90;;;;;;4972324;28;20054;-80
2021/12/13 09:24:46;;;;;;;6.47;5.70;;;4.70;99.90;;;;;;4972784;28;20088;-80
2021/12/13 09:27:31;;;;;;;7.53;6.00;;;4.70;99.90;;;;;;4972402;28;20027;-80
2021/12/13 09:30:04;;;;;;;;;;;4.60;99.90;;;;;;4971929;28;20051;-80
2021/12/13 09:32:36;;;;;;;7.37;5.97;;;4.70;99.90;;;;;;4972694;28;19917;-80
2021/12/13 09:35:39;;;;;;;6.97;5.80;;;4.60;99.90;;;;;;4972689;28;20700;-80
2021/12/13 09:38:34;;;;;;;7.40;6.17;;;4.70;99.90;;;;;;4959835;28;20360;-80
2021/12/13 09:41:21;;;;;;;9.18;6.30;;;4.80;99.90;;;;;;4972614;28;20027;-80
2021/12/13 09:43:56;;;;;;;8.87;6.07;;;4.90;99.90;;;;;;4972946;28;20058;-80
2021/12/13 09:46:54;;;;;;;8.00;5.22;;;5.00;99.90;;;;;;4954849;28;20039;-80
2021/12/13 09:49:52;;;;;;;6.73;5.53;;;5.00;99.90;;;;;;4944054;28;20045;-80
2021/12/13 09:52:42;;;;;;;10.63;5.90;;;5.00;99.90;;;;;;4972279;28;20077;-80
2021/12/13 09:55:17;;;;;;;6.53;5.43;;;5.10;99.90;;;;;;4973124;28;20117;-80
2021/12/13 09:57:53;;;;;;;7.05;5.35;;;5.20;99.90;;;;;;4972703;28;20030;-80
2021/12/13 10:00:26;;;;;;;6.90;5.70;;;5.30;99.90;;;;;;4955126;28;21200;-80
2021/12/13 10:02:56;;;;;;;6.23;4.63;;;5.20;99.90;;;;;;4972481;28;20117;-80
2021/12/13 10:05:28;;;;;;;6.20;4.93;;;5.30;99.90;;;;;;4972020;28;20114;-80
2021/12/13 10:07:58;;;;;;;7.23;5.10;;;5.30;99.90;;;;;;4975043;28;20030;-81
2021/12/13 10:10:54;;;;;;;6.90;4.77;;;5.20;99.90;;;;;;4959185;28;20029;-81
2021/12/13 10:13:24;;;;;;;7.93;5.30;;;5.30;99.90;;;;;;4978583;28;20038;-81
2021/12/13 10:16:07;;;;;;;5.87;4.80;;;5.30;99.90;;;;;;4986804;28;20031;-81
2021/12/13 10:18:35;;;;;;;6.07;4.93;;;5.30;99.90;;;;;;4976567;28;20411;-80
2021/12/13 10:21:10;;;;;;;6.63;5.37;;;5.30;99.90;;;;;;4971257;28;20035;-80
2021/12/13 10:23:42;;;;;;;9.20;4.88;;;5.40;99.90;;;;;;4971352;28;20038;-80
2021/12/13 10:26:11;;;;;;;6.80;4.80;;;5.40;99.90;;;;;;4971529;28;20030;-80
2021/12/13 10:28:40;;;;;;;7.30;5.40;;;5.40;99.90;;;;;;4971249;28;20035;-80
2021/12/13 10:31:08;;;;;;;7.53;5.87;;;5.40;99.90;;;;;;4971512;28;20476;-80
2021/12/13 10:33:38;;;;;;;7.37;5.63;;;5.40;99.90;;;;;;4970888;28;20050;-68
2021/12/13 10:36:06;;;;;;;7.20;5.80;;;5.40;99.90;;;;;;4970711;28;20038;-78
2021/12/13 10:38:39;;;;;;;9.47;5.97;;;5.40;99.90;;;;;;4954420;28;20034;-79
2021/12/13 10:41:08;;;;;;;7.60;6.20;;;5.50;99.90;;;;;;4970908;28;20100;-79
2021/12/13 10:43:41;;;;;;;6.73;5.97;;;5.50;99.90;;;;;;5040940;28;20023;-79
2021/12/13 10:46:32;;;;;;;10.37;7.20;;;5.50;99.90;;;;;;4974419;28;20074;-78
2021/12/13 10:49:03;;;;;;;8.70;7.27;;;5.50;99.90;;;;;;4976371;28;20118;-77
2021/12/13 10:51:41;;;;;;;9.07;6.97;;;5.60;99.90;;;;;;4972243;28;20038;-77
2021/12/13 10:54:15;;;;;;;8.60;6.77;;;5.60;99.90;;;;;;4971585;28;20031;-77
2021/12/13 10:56:44;;;;;;;8.23;6.80;;;5.60;99.90;;;;;;4972241;28;20027;-77
2021/12/13 10:59:16;;;;;;;8.97;7.50;;;5.60;99.90;;;;;;4971758;28;20027;-77
2021/12/13 11:01:48;;;;;;;15.13;8.10;;;5.60;99.90;;;;;;4971092;28;20482;-78
2021/12/13 11:04:23;;;;;;;8.07;6.87;;;5.60;99.90;;;;;;4971489;28;20065;-78
2021/12/13 11:06:50;;;;;;;8.70;6.25;;;5.60;99.90;;;;;;4971338;28;20030;-79
2021/12/13 11:09:20;;;;;;;8.33;6.93;;;5.60;99.90;;;;;;4971058;28;20414;-79
2021/12/13 11:11:58;;;;;;;10.20;8.23;;;5.60;99.90;;;;;;4971456;28;20054;-78
2021/12/13 11:14:27;;;;;;;12.13;8.07;;;5.60;99.90;;;;;;4954093;28;20092;-79
2021/12/13 11:16:57;;;;;;;16.83;9.10;;;5.60;99.90;;;;;;4971109;28;20487;-79
2021/12/13 11:19:27;;;;;;;15.30;9.10;;;5.60;99.90;;;;;;4963328;28;20034;-78
2021/12/13 11:22:01;;;;;;;14.73;8.90;;;5.60;99.90;;;;;;4965506;28;20038;-79
2021/12/13 11:24:30;;;;;;;18.90;9.40;;;5.70;99.90;;;;;;4970293;28;20034;-79
2021/12/13 11:27:00;;;;;;;18.50;9.80;;;5.70;99.90;;;;;;4971072;28;20023;-79
2021/12/13 11:29:28;;;;;;;14.10;9.53;;;5.70;99.90;;;;;;4954053;28;20133;-78
2021/12/13 11:31:53;;;;;;;14.67;9.57;;;5.70;99.90;;;;;;4971081;28;20027;-78
2021/12/13 11:34:31;;;;;;;14.53;9.13;;;5.70;99.90;;;;;;4971187;28;20433;-78
2021/12/13 11:37:34;;;;;;;15.50;10.13;;;5.80;99.90;;;;;;4971201;28;20027;-78
2021/12/13 11:40:29;;;;;;;13.17;8.83;;;5.80;99.90;;;;;;4971304;28;20062;-79
2021/12/13 11:43:13;;;;;;;14.17;8.20;;;5.80;99.90;;;;;;4975346;28;20031;-78
2021/12/13 11:45:57;;;;;;;11.63;8.73;;;5.70;99.90;;;;;;4973381;28;20474;-78
2021/12/13 11:48:51;;;;;;;19.00;8.87;;;5.80;99.90;;;;;;4990190;28;20382;-78
2021/12/13 11:51:49;;;;;;;13.70;9.53;;;5.80;99.90;;;;;;4977141;28;20026;-78
2021/12/13 11:54:39;;;;;;;17.43;10.23;;;5.90;99.90;;;;;;4970145;28;20031;-78
2021/12/13 11:57:43;;;;;;;12.40;8.63;;;5.90;99.90;;;;;;4953387;28;20387;-78
2021/12/13 12:00:46;;;;;;;11.70;8.53;;;5.90;99.90;;;;;;4986253;28;20534;-78
2021/12/13 12:03:49;;;;;;;12.93;8.53;;;5.80;99.90;;;;;;4990130;28;20033;-78
2021/12/13 12:06:54;;;;;;;13.70;9.23;;;5.90;99.90;;;;;;4951411;29;20027;-78
2021/12/13 12:09:30;;;;;;;16.90;9.63;;;5.90;99.90;;;;;;4951273;29;20479;-78
2021/12/13 12:12:33;;;;;;;16.20;9.07;;;5.90;99.90;;;;;;4967708;28;20038;-78
2021/12/13 12:15:01;;;;;;;15.47;9.57;;;5.90;99.90;;;;;;4970700;28;20039;-78
2021/12/13 12:17:31;;;;;;;14.30;10.00;;;5.90;99.90;;;;;;4987592;28;20034;-78
2021/12/13 12:19:57;;;;;;;15.23;8.27;;;5.90;99.90;;;;;;4980268;28;20437;-78
2021/12/13 12:22:31;;;;;;;16.13;10.07;;;5.90;99.90;;;;;;4973350;28;20034;-78
2021/12/13 12:24:59;;;;;;;13.13;8.77;;;5.90;99.90;;;;;;4956561;28;20502;-78
2021/12/13 12:27:29;;;;;;;11.40;8.30;;;5.90;99.90;;;;;;4974169;28;20034;-78
2021/12/13 12:29:58;;;;;;;11.07;7.60;;;6.00;99.90;;;;;;4973212;28;20046;-78
2021/12/13 12:32:33;;;;;;;10.67;7.13;;;6.10;99.90;;;;;;4972129;28;20050;-78
2021/12/13 12:35:00;;;;;;;9.60;6.80;;;6.30;99.90;;;;;;4955194;28;20403;-78
2021/12/13 12:37:25;;;;;;;10.37;5.83;;;6.30;99.90;;;;;;4973217;28;20050;-78
2021/12/13 12:40:08;;;;;;;11.23;6.00;;;6.30;99.90;;;;;;4972803;28;20058;-78
2021/12/13 12:42:43;;;;;;;7.73;5.60;;;6.30;99.90;;;;;;4955584;28;20042;-78
2021/12/13 12:45:12;;;;;;;8.15;5.40;;;6.20;99.90;;;;;;4973197;28;20364;-78
2021/12/13 12:47:47;;;;;;;6.60;5.30;;;6.10;99.90;;;;;;4973142;28;20046;-78
2021/12/13 12:50:26;;;;;;;7.40;5.47;;;6.10;99.90;;;;;;4955982;28;20042;-78
2021/12/13 12:53:07;;;;;;;7.10;5.07;;;6.20;99.90;;;;;;4972600;28;20035;-78
2021/12/13 12:55:41;;;;;;;8.00;5.63;;;6.30;99.90;;;;;;4973175;28;20062;-78
2021/12/13 12:58:38;;;;;;;8.38;5.25;;;6.20;99.90;;;;;;4972397;28;20121;-78
2021/12/13 13:01:16;;;;;;;6.47;5.17;;;6.10;99.90;;;;;;4972743;28;20045;-78
2021/12/13 13:03:42;;;;;;;8.03;5.73;;;5.90;99.90;;;;;;4973245;28;20383;-78
2021/12/13 13:06:15;;;;;;;7.77;6.03;;;6.00;99.90;;;;;;4971815;28;20121;-78
2021/12/13 13:08:45;;;;;;;8.77;5.40;;;5.90;99.90;;;;;;4954733;28;20083;-78
2021/12/13 13:11:27;;;;;;;8.23;5.97;;;6.00;99.90;;;;;;4955519;28;20096;-78
2021/12/13 13:14:12;;;;;;;7.30;5.40;;;6.10;99.90;;;;;;4972574;28;20046;-78
2021/12/13 13:16:51;;;;;;;7.17;5.30;;;6.00;99.90;;;;;;4973030;28;20031;-78
2021/12/13 13:19:32;;;;;;;9.50;6.60;;;6.00;99.90;;;;;;4972226;28;20039;-78
2021/12/13 13:22:06;;;;;;;8.10;5.43;;;6.00;99.90;;;;;;4967378;28;20101;-78
2021/12/13 13:24:37;;;;;;;9.90;6.43;;;6.00;99.90;;;;;;4950481;28;20030;-78
2021/12/13 13:27:02;;;;;;;8.97;6.13;;;6.00;99.90;;;;;;4972041;28;20125;-78
2021/12/13 13:29:28;;;;;;;8.63;5.90;;;6.00;99.90;;;;;;4952746;28;20091;-78
2021/12/13 13:31:58;;;;;;;7.80;5.97;;;6.00;99.90;;;;;;4968922;28;20042;-78
2021/12/13 13:34:52;;;;;;;8.87;6.07;;;6.10;99.90;;;;;;4970379;28;20038;-78
2021/12/13 13:37:24;;;;;;;8.20;6.10;;;6.00;99.90;;;;;;4971235;28;20037;-78
2021/12/13 13:39:53;;;;;;;10.87;6.77;;;6.00;99.90;;;;;;4970901;28;20046;-78
2021/12/13 13:42:25;;;;;;;12.00;7.63;;;6.00;99.90;;;;;;4970454;28;20038;-78
2021/12/13 13:45:11;;;;;;;9.53;6.83;;;6.00;99.90;;;;;;4969147;28;20691;-78
2021/12/13 13:47:38;;;;;;;;;;;6.00;99.90;;;;;;4929595;28;20259;-78
2021/12/13 13:50:24;;;;;;;9.90;7.40;;;6.10;99.90;;;;;;4970366;28;19918;-78
2021/12/13 13:52:53;;;;;;;13.33;10.37;;;6.10;99.90;;;;;;4970062;28;20662;-78
2021/12/13 13:55:43;;;;;;;18.20;9.73;;;6.20;99.90;;;;;;4970819;28;20052;-78
2021/12/13 13:58:18;;;;;;;13.53;9.53;;;6.40;99.90;;;;;;4969933;28;20099;-78